Terminal Aerodrome Forecast
Issued by NWS

Home | Current Version | Previous Version | Text Only | Print | Product List | Glossary On
Versions: 1 2 3 4 5 6 7 8 9 10 11 12 13
365
FTUS45 KRIW 141720
TAFWRL
TAF
KWRL 141720Z 1418/1518 VRB06KT P6SM SCT110 SCT200
     FM142100 VRB06KT P6SM BKN070
     FM150800 VRB06KT P6SM SCT030 BKN060=

USA.gov is the U.S. government's official web portal to all federal, state and local government web resources and services.